Погода Биельинана неделю

Биельина, Босния и Герцеговина

24 - 30 июля
  • 24июля
    Сегодня
    +19°
    +29°
    Практически безоблачно
    ВремяПогодаТемператураВлажностьДавлениеВетер, м/сВероятность осадков
    02:00Облачно с прояснениями+22°C82 %752 мм1.1 м/с9 %
    05:00Небольшая облачность, возможен дождь с грозой+21°C94 %753 мм0.9 м/с46 %
    08:00Небольшая облачность+22°C81 %753 мм2.1 м/с34 %
    11:00Небольшая облачность+25°C68 %752 мм2.5 м/с30 %
    14:00Практически безоблачно+28°C48 %751 мм2.9 м/с21 %
    17:00Небольшая облачность+29°C43 %751 мм2.6 м/с14 %
    20:00Облачно с прояснениями+27°C51 %751 мм1.5 м/с12 %
    23:00Ясно и безоблачно+24°C57 %751 мм1.9 м/с2 %
  • 25июля
    Четверг
    +16°
    +28°
    Ясно и безоблачно
    ВремяПогодаТемператураВлажностьДавлениеВетер, м/сВероятность осадков
    02:00Ясно и безоблачно+22°C62 %751 мм1.8 м/с2 %
    05:00Ясно и безоблачно+20°C68 %751 мм1.5 м/с2 %
    08:00Ясно и безоблачно+21°C62 %752 мм2.9 м/с2 %
    11:00Ясно и безоблачно+25°C45 %752 мм3.8 м/с2 %
    14:00Ясно и безоблачно+27°C38 %751 мм3.8 м/с7 %
    17:00Практически безоблачно+28°C36 %750 мм4.2 м/с3 %
    20:00Ясно и безоблачно+26°C48 %751 мм2.0 м/с2 %
    23:00Ясно и безоблачно+21°C61 %751 мм1.6 м/с2 %
  • 26июля
    Пятница
    +15°
    +29°
    Ясно и безоблачно
    ВремяПогодаТемператураВлажностьДавлениеВетер, м/сВероятность осадков
    02:00Ясно и безоблачно+19°C64 %751 мм1.4 м/с2 %
    05:00Ясно и безоблачно+16°C68 %751 мм1.2 м/с2 %
    08:00Ясно и безоблачно+20°C58 %752 мм1.6 м/с2 %
    11:00Ясно и безоблачно+26°C38 %753 мм2.5 м/с2 %
    14:00Ясно и безоблачно+28°C31 %752 мм2.8 м/с2 %
    17:00Небольшая облачность+29°C30 %752 мм2.5 м/с2 %
    20:00Ясно и безоблачно+27°C51 %752 мм0.9 м/с2 %
    23:00Ясно и безоблачно+21°C60 %753 мм0.9 м/с2 %
  • 27июля
    Суббота
    +18°
    +32°
    Ясно и безоблачно
    ВремяПогодаТемператураВлажностьДавлениеВетер, м/сВероятность осадков
    02:00Ясно и безоблачно+18°C73 %754 мм1.6 м/с2 %
    05:00Ясно и безоблачно+17°C76 %754 мм1.6 м/с2 %
    08:00Ясно и безоблачно+21°C63 %755 мм1.6 м/с2 %
    11:00Ясно и безоблачно+29°C34 %755 мм1.5 м/с2 %
    14:00Ясно и безоблачно+31°C30 %755 мм2.0 м/с2 %
    17:00Ясно и безоблачно+32°C30 %755 мм2.4 м/с2 %
    20:00Ясно и безоблачно+28°C42 %755 мм1.9 м/с2 %
    23:00Ясно и безоблачно+23°C51 %756 мм1.6 м/с2 %
  • 28июля
    Воскресенье
    +19°
    +36°
    Ясно и безоблачно
    ВремяПогодаТемператураВлажностьДавлениеВетер, м/сВероятность осадков
    02:00Ясно и безоблачно+20°C61 %756 мм1.5 м/с2 %
    05:00Ясно и безоблачно+19°C73 %756 мм1.4 м/с2 %
    08:00Ясно и безоблачно+23°C60 %756 мм1.3 м/с2 %
    11:00Ясно и безоблачно+31°C35 %756 мм1.8 м/с2 %
    14:00Ясно и безоблачно+34°C25 %755 мм1.9 м/с2 %
    17:00Ясно и безоблачно+35°C24 %754 мм2.2 м/с2 %
    20:00Ясно и безоблачно+31°C41 %753 мм2.0 м/с2 %
    23:00Ясно и безоблачно+26°C60 %753 мм1.2 м/с2 %
Мы используем cookies
Соглашаюсь